Time;durP1;ratioP1;P1;durP2;ratioP2;P2;SDS_P1;SDS_P2;PMS_P1;PMS_P2;Temp;Humidity;BMP_temperature;BMP_pressure;BME280_temperature;BME280_humidity;BME280_pressure;Samples;Min_cycle;Max_cycle;Signal;HPM_P1;HPM_P2
2022/11/28 00:00:07;;;;;;;;;;;;;;;13.83;76.39;100601.78;1262098;23;610;-68
2022/11/28 00:00:57;;;;;;;;;;;;;;;13.83;75.66;100601.78;1261286;23;630;-68
2022/11/28 00:01:48;;;;;;;;;;;;;;;13.82;75.86;100605.44;1262026;23;630;-68
2022/11/28 00:02:39;;;;;;;;;;;;;;;13.83;75.75;100604.47;1261331;23;668;-68
2022/11/28 00:03:29;;;;;;;;;;;;;;;13.82;75.86;100603.63;1261173;23;614;-68
2022/11/28 00:04:19;;;;;;;;;;;;;;;13.82;75.98;100597.41;1261206;23;641;-68
2022/11/28 00:05:10;;;;;;;;;;;;;;;13.82;75.87;100595.59;1256786;23;637;-68
2022/11/28 00:06:00;;;;;;;;;;;;;;;13.81;75.92;100593.03;1255740;23;638;-68
2022/11/28 00:06:51;;;;;;;;;;;;;;;13.81;76.35;100598.38;1261194;23;590;-68
2022/11/28 00:07:41;;;;;;;;;;;;;;;13.81;76.50;100598.38;1261189;23;641;-68
2022/11/28 00:08:32;;;;;;;;;;;;;;;13.80;76.52;100600.22;1262208;23;622;-68
2022/11/28 00:09:22;;;;;;;;;;;;;;;13.80;75.98;100599.38;1261090;23;618;-68
2022/11/28 00:10:13;;;;;;;;;;;;;;;13.79;76.38;100601.19;1261361;23;661;-68
2022/11/28 00:11:03;;;;;;;;;;;;;;;13.79;76.07;100597.69;1261254;23;669;-68
2022/11/28 00:11:53;;;;;;;;;;;;;;;13.79;76.57;100603.88;1262119;23;617;-67
2022/11/28 00:12:44;;;;;;;;;;;;;;;13.78;75.70;100599.53;1261167;23;699;-68
2022/11/28 00:13:35;;;;;;;;;;;;;;;13.78;76.04;100596.84;1260985;23;661;-68
2022/11/28 00:14:25;;;;;;;;;;;;;;;13.78;76.60;100596.84;1261257;23;664;-68
2022/11/28 00:15:16;;;;;;;;;;;;;;;13.79;75.92;100592.34;1261220;23;649;-67
2022/11/28 00:16:06;;;;;;;;;;;;;;;13.81;76.29;100598.38;1262064;23;649;-68
2022/11/28 00:16:57;;;;;;;;;;;;;;;13.80;76.27;100600.22;1262113;23;664;-67
2022/11/28 00:17:47;;;;;;;;;;;;;;;13.80;75.75;100583.28;1261145;23;638;-68
2022/11/28 00:18:38;;;;;;;;;;;;;;;13.79;76.19;100586.97;1262046;23;657;-68
2022/11/28 00:19:28;;;;;;;;;;;;;;;13.80;75.89;100594.00;1261231;23;598;-68
2022/11/28 00:20:18;;;;;;;;;;;;;;;13.79;76.57;100587.81;1261160;23;610;-67
2022/11/28 00:21:09;;;;;;;;;;;;;;;13.79;76.39;100584.31;1262125;23;728;-68
2022/11/28 00:21:59;;;;;;;;;;;;;;;13.79;76.54;100589.66;1261201;23;662;-68
2022/11/28 00:22:51;;;;;;;;;;;;;;;13.78;75.82;100590.63;1261234;23;870;-68
2022/11/28 00:23:41;;;;;;;;;;;;;;;13.77;75.80;100580.91;1261330;23;641;-68
2022/11/28 00:24:31;;;;;;;;;;;;;;;13.79;76.06;100592.34;1261269;23;689;-68
2022/11/28 00:25:22;;;;;;;;;;;;;;;13.78;76.12;100593.31;1261160;23;696;-68
2022/11/28 00:26:12;;;;;;;;;;;;;;;13.77;76.00;100581.75;1262251;23;606;-68
2022/11/28 00:27:03;;;;;;;;;;;;;;;13.77;76.55;100587.09;1256497;23;677;-68
2022/11/28 00:27:53;;;;;;;;;;;;;;;13.77;76.16;100578.22;1254973;23;594;-67
2022/11/28 00:28:43;;;;;;;;;;;;;;;13.76;76.00;100579.19;1254700;23;649;-68
2022/11/28 00:29:34;;;;;;;;;;;;;;;13.77;76.51;100578.22;1253947;23;658;-68
2022/11/28 00:30:24;;;;;;;;;;;;;;;13.74;76.44;100571.28;1253818;23;669;-68
2022/11/28 00:31:15;;;;;;;;;;;;;;;13.74;76.61;100571.28;1255662;23;602;-68
2022/11/28 00:32:05;;;;;;;;;;;;;;;13.77;76.04;100575.53;1261875;23;990;-68
2022/11/28 00:32:56;;;;;;;;;;;;;;;13.76;75.96;100568.47;1261305;23;610;-68
2022/11/28 00:33:46;;;;;;;;;;;;;;;13.76;75.89;100568.47;1261430;23;1944;-68
2022/11/28 00:34:36;;;;;;;;;;;;;;;13.76;76.07;100569.34;1261198;23;700;-68
2022/11/28 00:35:27;;;;;;;;;;;;;;;13.77;75.78;100564.81;1256869;23;606;-68
2022/11/28 00:36:17;;;;;;;;;;;;;;;13.79;75.93;100568.22;1254921;23;638;-68
2022/11/28 00:37:08;;;;;;;;;;;;;;;13.78;75.93;100563.84;1260977;23;634;-68
2022/11/28 00:37:58;;;;;;;;;;;;;;;13.78;76.22;100564.72;1261163;23;559;-68
2022/11/28 00:38:49;;;;;;;;;;;;;;;13.78;76.35;100562.03;1262059;23;684;-68
2022/11/28 00:39:39;;;;;;;;;;;;;;;13.78;76.10;100566.53;1262257;23;633;-68
2022/11/28 00:40:29;;;;;;;;;;;;;;;13.77;76.37;100570.19;1261071;23;804;-68
2022/11/28 00:41:20;;;;;;;;;;;;;;;13.78;76.13;100577.25;1261205;23;669;-68
2022/11/28 00:42:10;;;;;;;;;;;;;;;13.78;76.45;100570.06;1262084;23;606;-68
2022/11/28 00:43:01;;;;;;;;;;;;;;;13.79;75.68;100576.28;1261094;23;653;-68
2022/11/28 00:43:51;;;;;;;;;;;;;;;13.77;76.66;100564.81;1261148;23;602;-67
2022/11/28 00:44:41;;;;;;;;;;;;;;;13.76;75.92;100573.84;1256571;23;672;-68
2022/11/28 00:45:32;;;;;;;;;;;;;;;13.75;76.46;100569.47;1254949;23;773;-67
2022/11/28 00:46:22;;;;;;;;;;;;;;;13.76;76.72;100571.16;1260990;23;677;-68
2022/11/28 00:47:13;;;;;;;;;;;;;;;13.76;76.07;100573.84;1261107;23;1178;-68
2022/11/28 00:48:03;;;;;;;;;;;;;;;13.76;75.79;100568.47;1255980;23;625;-68
2022/11/28 00:48:54;;;;;;;;;;;;;;;13.76;75.89;100571.16;1254838;23;583;-68
2022/11/28 00:49:44;;;;;;;;;;;;;;;13.75;76.18;100574.81;1261062;23;611;-68
2022/11/28 00:50:34;;;;;;;;;;;;;;;13.75;76.35;100573.00;1261209;23;653;-68
2022/11/28 00:51:25;;;;;;;;;;;;;;;13.73;76.05;100564.22;1262171;23;759;-68
2022/11/28 00:52:15;;;;;;;;;;;;;;;13.73;76.41;100568.72;1261592;23;626;-68
2022/11/28 00:53:06;;;;;;;;;;;;;;;13.74;76.21;100578.47;1262490;23;637;-67
2022/11/28 00:53:56;;;;;;;;;;;;;;;13.72;75.90;100569.69;1261349;23;1897;-68
2022/11/28 00:54:47;;;;;;;;;;;;;;;13.72;76.00;100578.59;1261574;23;614;-68
2022/11/28 00:55:37;;;;;;;;;;;;;;;13.73;76.08;100568.72;1262365;23;594;-68
2022/11/28 00:56:27;;;;;;;;;;;;;;;13.74;76.08;100567.75;1261830;23;666;-68
2022/11/28 00:57:18;;;;;;;;;;;;;;;13.73;76.43;100558.03;1261532;23;619;-68
2022/11/28 00:58:08;;;;;;;;;;;;;;;13.72;76.88;100556.31;1261518;23;650;-68
2022/11/28 00:58:59;;;;;;;;;;;;;;;13.74;76.18;100559.72;1261748;23;623;-68
2022/11/28 00:59:49;;;;;;;;;;;;;;;13.74;76.08;100546.34;1256978;23;641;-68
2022/11/28 01:00:40;;;;;;;;;;;;;;;13.74;75.97;100554.38;1255184;23;661;-68
2022/11/28 01:01:30;;;;;;;;;;;;;;;13.72;76.27;100540.25;1261373;23;598;-68
2022/11/28 01:02:21;;;;;;;;;;;;;;;13.73;76.60;100542.81;1261682;23;685;-68
2022/11/28 01:03:11;;;;;;;;;;;;;;;13.74;76.20;100538.28;1256999;23;641;-68
2022/11/28 01:04:01;;;;;;;;;;;;;;;13.74;76.30;100538.28;1255301;23;689;-68
2022/11/28 01:04:52;;;;;;;;;;;;;;;13.72;76.08;100540.25;1261444;23;642;-68
2022/11/28 01:05:42;;;;;;;;;;;;;;;13.71;76.29;100544.75;1261546;23;650;-68
2022/11/28 01:06:33;;;;;;;;;;;;;;;13.71;75.94;100538.53;1261511;23;638;-69
2022/11/28 01:07:23;;;;;;;;;;;;;;;13.70;76.74;100536.84;1261591;23;607;-68
2022/11/28 01:08:14;;;;;;;;;;;;;;;13.69;76.83;100538.66;1262500;23;653;-68
2022/11/28 01:09:04;;;;;;;;;;;;;;;13.72;76.72;100540.25;1256890;23;626;-68
2022/11/28 01:09:54;;;;;;;;;;;;;;;13.71;76.81;100534.03;1249311;23;647;-68
2022/11/28 01:10:45;;;;;;;;;;;;;;;13.71;76.16;100539.41;1252439;23;603;-68
2022/11/28 01:11:35;;;;;;;;;;;;;;;13.72;76.14;100534.91;1259936;23;653;-68
2022/11/28 01:12:26;;;;;;;;;;;;;;;13.71;76.32;100538.53;1261500;23;689;-68
2022/11/28 01:13:16;;;;;;;;;;;;;;;13.72;76.97;100540.25;1261498;23;657;-68
2022/11/28 01:14:07;;;;;;;;;;;;;;;13.69;76.34;100533.31;1256779;23;1923;-68
2022/11/28 01:14:58;;;;;;;;;;;;;;;13.70;76.32;100542.19;1255288;23;626;-68
2022/11/28 01:15:48;;;;;;;;;;;;;;;13.70;76.33;100534.16;1261639;23;650;-68
2022/11/28 01:16:39;;;;;;;;;;;;;;;13.69;76.12;100536.00;1261663;23;621;-68
2022/11/28 01:17:29;;;;;;;;;;;;;;;13.70;76.44;100528.81;1256885;23;602;-68
2022/11/28 01:18:20;;;;;;;;;;;;;;;13.69;76.69;100530.63;1255246;23;650;-68
2022/11/28 01:19:10;;;;;;;;;;;;;;;13.68;75.55;100534.28;1261415;23;630;-67
2022/11/28 01:20:01;;;;;;;;;;;;;;;13.66;76.74;100530.88;1261602;23;661;-68
2022/11/28 01:20:51;;;;;;;;;;;;;;;13.68;76.59;100528.94;1262386;23;633;-68
2022/11/28 01:21:42;;;;;;;;;;;;;;;13.69;76.24;100524.44;1261542;23;654;-68
2022/11/28 01:22:32;;;;;;;;;;;;;;;13.69;76.08;100527.97;1261559;23;646;-68
2022/11/28 01:23:22;;;;;;;;;;;;;;;13.70;76.67;100532.34;1257020;23;633;-68
2022/11/28 01:24:13;;;;;;;;;;;;;;;13.70;76.76;100528.81;1256051;23;701;-68
2022/11/28 01:25:03;;;;;;;;;;;;;;;13.71;76.36;100530.50;1261411;23;737;-68
2022/11/28 01:25:54;;;;;;;;;;;;;;;13.72;76.05;100529.53;1261528;23;626;-68
2022/11/28 01:26:44;;;;;;;;;;;;;;;13.73;76.19;100520.53;1256815;23;609;-68
2022/11/28 01:27:35;;;;;;;;;;;;;;;13.71;76.45;100528.69;1255224;23;614;-68
2022/11/28 01:28:25;;;;;;;;;;;;;;;13.71;76.51;100522.47;1261425;23;633;-68
2022/11/28 01:29:15;;;;;;;;;;;;;;;13.69;76.81;100517.25;1262379;23;657;-68
2022/11/28 01:30:06;;;;;;;;;;;;;;;13.69;76.86;100519.91;1261441;23;626;-68
2022/11/28 01:30:56;;;;;;;;;;;;;;;13.70;76.68;100515.41;1261549;23;614;-68
2022/11/28 01:31:47;;;;;;;;;;;;;;;13.70;75.95;100515.41;1256177;23;637;-68
2022/11/28 01:32:37;;;;;;;;;;;;;;;13.69;76.18;100514.56;1255096;23;625;-68
2022/11/28 01:33:28;;;;;;;;;;;;;;;13.68;76.76;100518.22;1261482;23;602;-68
2022/11/28 01:34:18;;;;;;;;;;;;;;;13.68;76.40;100520.91;1261640;23;610;-68
2022/11/28 01:35:08;;;;;;;;;;;;;;;13.66;76.33;100520.16;1261574;23;684;-68
2022/11/28 01:35:59;;;;;;;;;;;;;;;13.64;76.45;100516.78;1262408;23;609;-68
2022/11/28 01:36:49;;;;;;;;;;;;;;;13.64;76.58;100522.13;1261444;23;597;-68
2022/11/28 01:37:40;;;;;;;;;;;;;;;13.66;76.52;100520.16;1262304;23;629;-68
2022/11/28 01:38:30;;;;;;;;;;;;;;;13.65;76.30;100522.97;1261562;23;637;-68
2022/11/28 01:39:21;;;;;;;;;;;;;;;13.66;76.94;100517.50;1261477;23;657;-68
2022/11/28 01:40:11;;;;;;;;;;;;;;;13.67;76.32;100521.03;1261517;23;622;-68
2022/11/28 01:41:02;;;;;;;;;;;;;;;13.65;76.85;100518.47;1261523;23;641;-68
2022/11/28 01:41:52;;;;;;;;;;;;;;;13.66;77.12;100516.66;1261449;23;614;-68
2022/11/28 01:42:42;;;;;;;;;;;;;;;13.66;76.59;100522.00;1261507;23;606;-68
2022/11/28 01:43:33;;;;;;;;;;;;;;;13.66;76.79;100513.97;1261506;23;638;-68
2022/11/28 01:44:23;;;;;;;;;;;;;;;13.68;76.84;100522.72;1261420;23;921;-68
2022/11/28 01:45:14;;;;;;;;;;;;;;;13.69;76.70;100524.44;1262340;23;649;-68
2022/11/28 01:46:04;;;;;;;;;;;;;;;13.69;76.85;100527.09;1260983;23;661;-68
2022/11/28 01:46:55;;;;;;;;;;;;;;;13.68;76.44;100536.13;1262183;23;1103;-68
2022/11/28 01:47:45;;;;;;;;;;;;;;;13.66;76.84;100528.22;1261520;23;605;-68
2022/11/28 01:48:35;;;;;;;;;;;;;;;13.66;76.52;100520.16;1261498;23;654;-69
2022/11/28 01:49:26;;;;;;;;;;;;;;;13.66;77.08;100524.69;1261465;23;617;-68
2022/11/28 01:50:16;;;;;;;;;;;;;;;13.66;77.03;100524.69;1262326;23;613;-69
2022/11/28 01:51:07;;;;;;;;;;;;;;;13.66;76.49;100520.16;1261527;23;618;-69
2022/11/28 01:51:57;;;;;;;;;;;;;;;13.67;76.46;100516.53;1262355;23;748;-69
2022/11/28 01:52:48;;;;;;;;;;;;;;;13.68;76.82;100517.38;1262409;23;797;-69
2022/11/28 01:53:38;;;;;;;;;;;;;;;13.70;76.48;100518.94;1255079;23;689;-69
2022/11/28 01:54:28;;;;;;;;;;;;;;;13.68;77.14;100520.03;1255129;23;623;-69
2022/11/28 01:55:19;;;;;;;;;;;;;;;13.68;76.40;100514.69;1261225;23;602;-69
2022/11/28 01:56:09;;;;;;;;;;;;;;;13.67;76.59;100516.53;1261444;23;637;-69
2022/11/28 01:57:00;;;;;;;;;;;;;;;13.68;76.77;100520.03;1261552;23;627;-69
2022/11/28 01:57:50;;;;;;;;;;;;;;;13.66;75.92;100519.31;1261527;23;614;-69
2022/11/28 01:58:40;;;;;;;;;;;;;;;13.65;76.67;100518.47;1261549;23;658;-69
2022/11/28 01:59:31;;;;;;;;;;;;;;;13.63;77.00;100517.75;1261377;23;635;-69
2022/11/28 02:00:21;;;;;;;;;;;;;;;13.64;77.01;100519.44;1261517;23;663;-69
2022/11/28 02:01:12;;;;;;;;;;;;;;;13.64;76.89;100519.44;1261412;23;610;-68
2022/11/28 02:02:02;;;;;;;;;;;;;;;13.65;76.81;100517.63;1261369;23;534;-68
2022/11/28 02:02:53;;;;;;;;;;;;;;;13.63;76.38;100509.72;1261383;23;720;-68
2022/11/28 02:03:43;;;;;;;;;;;;;;;13.64;76.96;100513.25;1261292;23;606;-68
2022/11/28 02:04:33;;;;;;;;;;;;;;;13.58;76.24;100513.78;1256800;23;594;-68
2022/11/28 02:05:24;;;;;;;;;;;;;;;13.58;76.85;100511.94;1255061;23;606;-69
2022/11/28 02:06:14;;;;;;;;;;;;;;;13.60;77.12;100514.50;1255027;23;642;-69
2022/11/28 02:07:05;;;;;;;;;;;;;;;13.62;76.64;100508.00;1254426;23;653;-68
2022/11/28 02:07:55;;;;;;;;;;;;;;;13.62;76.50;100508.00;1254152;23;697;-69
2022/11/28 02:08:45;;;;;;;;;;;;;;;13.64;76.62;100515.91;1253685;23;645;-69
2022/11/28 02:09:36;;;;;;;;;;;;;;;13.65;76.59;100512.25;1254180;23;646;-68
2022/11/28 02:10:26;;;;;;;;;;;;;;;13.63;76.37;100508.84;1261503;23;645;-68
2022/11/28 02:11:17;;;;;;;;;;;;;;;13.63;77.11;100509.72;1261382;23;804;-68
2022/11/28 02:12:07;;;;;;;;;;;;;;;13.63;77.03;100517.75;1262442;23;835;-68
2022/11/28 02:12:58;;;;;;;;;;;;;;;13.62;76.30;100505.34;1261451;23;637;-68
2022/11/28 02:13:48;;;;;;;;;;;;;;;13.61;76.70;100513.53;1261156;23;1880;-68
2022/11/28 02:14:38;;;;;;;;;;;;;;;13.58;76.20;100516.44;1262307;23;630;-68
2022/11/28 02:15:30;;;;;;;;;;;;;;;13.58;76.98;100505.75;1261468;23;650;-68
2022/11/28 02:16:21;;;;;;;;;;;;;;;13.58;77.39;100508.41;1261514;23;625;-69
2022/11/28 02:17:11;;;;;;;;;;;;;;;13.58;77.36;100509.28;1262302;23;616;-68
2022/11/28 02:18:02;;;;;;;;;;;;;;;13.59;77.29;100505.63;1261320;23;610;-69
2022/11/28 02:18:52;;;;;;;;;;;;;;;13.61;75.96;100505.50;1261356;23;642;-68
2022/11/28 02:19:43;;;;;;;;;;;;;;;13.47;76.25;100502.09;1261328;23;756;-68
2022/11/28 02:20:33;;;;;;;;;;;;;;;13.49;75.89;100499.31;1256949;23;661;-68
2022/11/28 02:21:23;;;;;;;;;;;;;;;13.51;76.88;100506.22;1255212;23;637;-69
2022/11/28 02:22:14;;;;;;;;;;;;;;;13.54;77.21;100502.47;1261280;23;618;-67
2022/11/28 02:23:04;;;;;;;;;;;;;;;13.53;77.12;100498.94;1261451;23;598;-68
2022/11/28 02:23:55;;;;;;;;;;;;;;;13.55;76.72;100496.97;1261463;23;603;-68
2022/11/28 02:24:45;;;;;;;;;;;;;;;13.55;77.35;100496.13;1261471;23;622;-67
2022/11/28 02:25:36;;;;;;;;;;;;;;;13.58;76.88;100493.19;1261419;23;626;-67
2022/11/28 02:26:26;;;;;;;;;;;;;;;13.61;76.21;100501.00;1261390;23;680;-68
2022/11/28 02:27:17;;;;;;;;;;;;;;;13.61;76.44;100500.13;1261460;23;621;-68
2022/11/28 02:28:07;;;;;;;;;;;;;;;13.62;76.42;100496.44;1261357;23;752;-68
2022/11/28 02:28:57;;;;;;;;;;;;;;;13.58;76.52;100495.88;1262233;23;638;-67
2022/11/28 02:29:48;;;;;;;;;;;;;;;13.57;76.39;100496.00;1260835;23;665;-68
2022/11/28 02:30:38;;;;;;;;;;;;;;;13.58;76.79;100493.19;1261351;23;614;-68
2022/11/28 02:31:32;;;;;;;;;;;;;;;13.59;76.37;100499.41;1262045;23;645;-67
2022/11/28 02:32:22;;;;;;;;;;;;;;;13.61;76.63;100500.13;1256855;23;610;-67
2022/11/28 02:33:13;;;;;;;;;;;;;;;13.61;76.94;100498.31;1255125;23;629;-67
2022/11/28 02:34:03;;;;;;;;;;;;;;;13.61;76.75;100494.78;1261183;23;1918;-68
2022/11/28 02:34:53;;;;;;;;;;;;;;;13.60;76.79;100499.28;1261430;23;606;-68
2022/11/28 02:35:44;;;;;;;;;;;;;;;13.62;76.34;100504.47;1261481;23;704;-68
2022/11/28 02:36:34;;;;;;;;;;;;;;;13.61;76.00;100494.78;1262271;23;598;-68
2022/11/28 02:37:25;;;;;;;;;;;;;;;13.58;76.28;100500.38;1261303;23;646;-68
2022/11/28 02:38:15;;;;;;;;;;;;;;;13.59;76.00;100502.94;1261388;23;618;-68
2022/11/28 02:39:06;;;;;;;;;;;;;;;13.56;76.37;100497.84;1261366;23;598;-67
2022/11/28 02:39:56;;;;;;;;;;;;;;;13.54;76.19;100503.31;1261346;23;618;-68
2022/11/28 02:40:47;;;;;;;;;;;;;;;13.58;76.50;100500.38;1261307;23;637;-68
2022/11/28 02:41:37;;;;;;;;;;;;;;;13.58;76.65;100492.34;1261390;23;645;-69
2022/11/28 02:42:28;;;;;;;;;;;;;;;13.59;76.95;100499.41;1262113;23;657;-68
2022/11/28 02:43:18;;;;;;;;;;;;;;;13.59;76.79;100499.41;1261394;23;595;-68
2022/11/28 02:44:08;;;;;;;;;;;;;;;13.55;76.16;100496.97;1260708;23;634;-68
2022/11/28 02:44:59;;;;;;;;;;;;;;;13.54;76.51;100497.97;1262216;23;638;-68
2022/11/28 02:45:49;;;;;;;;;;;;;;;13.57;77.08;100499.53;1256975;23;656;-67
2022/11/28 02:46:40;;;;;;;;;;;;;;;13.57;76.95;100493.31;1255117;23;657;-67
2022/11/28 02:47:30;;;;;;;;;;;;;;;13.57;76.45;100501.34;1261282;23;606;-67
2022/11/28 02:48:20;;;;;;;;;;;;;;;13.55;77.07;100496.13;1262181;23;618;-67
2022/11/28 02:49:11;;;;;;;;;;;;;;;13.54;77.17;100497.97;1262084;23;672;-68
2022/11/28 02:50:01;;;;;;;;;;;;;;;13.54;76.59;100497.09;1261377;23;673;-67
2022/11/28 02:50:52;;;;;;;;;;;;;;;13.53;76.27;100496.25;1262178;23;633;-67
2022/11/28 02:51:42;;;;;;;;;;;;;;;13.54;76.87;100494.44;1261399;23;622;-67
2022/11/28 02:52:33;;;;;;;;;;;;;;;13.58;76.25;100495.03;1261397;23;665;-67
2022/11/28 02:53:23;;;;;;;;;;;;;;;13.57;76.45;100494.19;1261441;23;630;-67
2022/11/28 02:54:13;;;;;;;;;;;;;;;13.59;76.82;100499.41;1261287;23;662;-67
2022/11/28 02:55:04;;;;;;;;;;;;;;;13.59;76.95;100494.06;1262171;23;692;-67
2022/11/28 02:55:54;;;;;;;;;;;;;;;13.59;76.24;100499.41;1261337;23;778;-67
2022/11/28 02:56:45;;;;;;;;;;;;;;;13.60;76.41;100501.13;1261317;23;689;-67
2022/11/28 02:57:35;;;;;;;;;;;;;;;13.58;76.79;100495.88;1262270;23;637;-67
2022/11/28 02:58:26;;;;;;;;;;;;;;;13.59;76.35;100497.59;1261362;23;614;-68
2022/11/28 02:59:16;;;;;;;;;;;;;;;13.59;77.02;100492.22;1261238;23;630;-67
2022/11/28 03:00:06;;;;;;;;;;;;;;;13.58;76.93;100503.06;1261265;23;626;-67
2022/11/28 03:00:57;;;;;;;;;;;;;;;13.55;76.48;100502.34;1261352;23;716;-67
2022/11/28 03:01:47;;;;;;;;;;;;;;;13.53;76.74;100493.56;1262133;23;602;-67
2022/11/28 03:02:38;;;;;;;;;;;;;;;13.53;77.01;100493.56;1261403;23;692;-67
2022/11/28 03:03:28;;;;;;;;;;;;;;;13.55;76.61;100502.34;1262211;23;731;-67
2022/11/28 03:04:19;;;;;;;;;;;;;;;13.54;76.96;100497.09;1261251;23;669;-67
2022/11/28 03:05:09;;;;;;;;;;;;;;;13.56;76.58;100503.19;1261317;23;704;-67
2022/11/28 03:05:59;;;;;;;;;;;;;;;13.58;76.61;100505.75;1261410;23;660;-67
2022/11/28 03:06:50;;;;;;;;;;;;;;;13.58;76.54;100498.56;1261111;23;673;-67
2022/11/28 03:07:40;;;;;;;;;;;;;;;13.59;77.21;100504.75;1261252;23;630;-67
2022/11/28 03:08:31;;;;;;;;;;;;;;;13.52;76.00;100494.56;1256661;23;653;-68
2022/11/28 03:09:21;;;;;;;;;;;;;;;13.52;77.05;100494.56;1255031;23;618;-67
2022/11/28 03:10:12;;;;;;;;;;;;;;;13.54;76.85;100489.06;1261171;23;689;-68
2022/11/28 03:11:02;;;;;;;;;;;;;;;13.49;76.29;100494.81;1262194;23;657;-67
2022/11/28 03:11:52;;;;;;;;;;;;;;;13.45;75.60;100493.34;1261243;23;622;-67
2022/11/28 03:12:43;;;;;;;;;;;;;;;13.40;76.58;100492.91;1261263;23;677;-68
2022/11/28 03:13:33;;;;;;;;;;;;;;;13.42;77.47;100490.94;1261333;23;588;-68
2022/11/28 03:14:24;;;;;;;;;;;;;;;13.43;76.95;100487.28;1261398;23;664;-67
2022/11/28 03:15:14;;;;;;;;;;;;;;;13.46;77.14;100494.19;1261307;23;670;-68
2022/11/28 03:16:05;;;;;;;;;;;;;;;13.49;77.12;100488.59;1261257;23;665;-68
2022/11/28 03:16:55;;;;;;;;;;;;;;;13.52;76.88;100496.38;1262073;23;622;-67
2022/11/28 03:17:46;;;;;;;;;;;;;;;13.53;76.68;100488.22;1262197;23;621;-67
2022/11/28 03:18:36;;;;;;;;;;;;;;;13.50;76.91;100484.94;1261311;23;653;-68
2022/11/28 03:19:26;;;;;;;;;;;;;;;13.51;76.68;100487.50;1262096;23;716;-68
2022/11/28 03:20:17;;;;;;;;;;;;;;;13.53;77.00;100488.22;1262107;23;633;-68
2022/11/28 03:21:07;;;;;;;;;;;;;;;13.55;76.44;100488.09;1261231;23;622;-67
2022/11/28 03:21:58;;;;;;;;;;;;;;;13.53;75.66;100490.06;1261334;23;681;-67
2022/11/28 03:22:48;;;;;;;;;;;;;;;13.46;76.08;100492.38;1261286;23;618;-67
2022/11/28 03:23:39;;;;;;;;;;;;;;;13.45;76.81;100490.66;1256710;23;639;-67
2022/11/28 03:24:29;;;;;;;;;;;;;;;13.47;76.50;100488.72;1254963;23;584;-67
2022/11/28 03:25:19;;;;;;;;;;;;;;;13.47;77.25;100487.88;1261164;23;658;-67
2022/11/28 03:26:10;;;;;;;;;;;;;;;13.49;76.68;100492.13;1262140;23;633;-67
2022/11/28 03:27:00;;;;;;;;;;;;;;;13.50;76.86;100485.78;1261385;23;614;-68
2022/11/28 03:27:51;;;;;;;;;;;;;;;13.50;76.36;100491.16;1260760;23;637;-68
2022/11/28 03:28:41;;;;;;;;;;;;;;;13.48;76.16;100490.41;1261373;23;836;-67
2022/11/28 03:29:32;;;;;;;;;;;;;;;13.46;76.52;100486.16;1261378;23;626;-67
2022/11/28 03:30:22;;;;;;;;;;;;;;;13.47;76.92;100483.38;1262000;23;609;-67
2022/11/28 03:31:12;;;;;;;;;;;;;;;13.47;76.73;100496.75;1261388;23;633;-67
2022/11/28 03:32:03;;;;;;;;;;;;;;;13.47;76.72;100488.72;1261372;23;653;-67
2022/11/28 03:32:53;;;;;;;;;;;;;;;13.47;76.69;100486.03;1262187;23;672;-67
2022/11/28 03:33:44;;;;;;;;;;;;;;;13.50;76.53;100491.16;1262183;23;655;-67
2022/11/28 03:34:34;;;;;;;;;;;;;;;13.37;75.83;100487.78;1262265;23;652;-67
2022/11/28 03:35:24;;;;;;;;;;;;;;;13.39;76.73;100491.19;1261353;23;653;-67
2022/11/28 03:36:15;;;;;;;;;;;;;;;13.39;76.88;100491.19;1262041;23;641;-67
2022/11/28 03:37:06;;;;;;;;;;;;;;;13.42;76.87;100490.09;1262241;23;661;-67
2022/11/28 03:37:56;;;;;;;;;;;;;;;13.46;76.58;100484.34;1261483;23;618;-67
2022/11/28 03:38:46;;;;;;;;;;;;;;;13.46;76.41;100481.66;1262075;23;666;-68
2022/11/28 03:39:37;;;;;;;;;;;;;;;13.48;76.67;100484.22;1262217;23;719;-68
2022/11/28 03:40:27;;;;;;;;;;;;;;;13.46;76.49;100489.69;1261243;23;648;-67
2022/11/28 03:41:18;;;;;;;;;;;;;;;13.46;77.02;100487.03;1261260;23;696;-68
2022/11/28 03:42:08;;;;;;;;;;;;;;;13.48;77.19;100489.56;1260569;23;621;-68
2022/11/28 03:42:59;;;;;;;;;;;;;;;13.49;76.46;100486.78;1261314;23;590;-67
2022/11/28 03:43:49;;;;;;;;;;;;;;;13.49;76.34;100481.41;1261977;23;656;-67
2022/11/28 03:44:39;;;;;;;;;;;;;;;13.50;76.78;100485.78;1261279;23;853;-68
2022/11/28 03:45:30;;;;;;;;;;;;;;;13.53;76.27;100484.69;1261061;23;1025;-67
2022/11/28 03:46:20;;;;;;;;;;;;;;;13.49;76.72;100481.41;1261338;23;672;-67
2022/11/28 03:47:11;;;;;;;;;;;;;;;13.49;76.48;100480.56;1261769;23;1319;-68
2022/11/28 03:48:01;;;;;;;;;;;;;;;13.48;76.81;100485.06;1261282;23;597;-68
2022/11/28 03:48:52;;;;;;;;;;;;;;;13.49;76.48;100485.91;1262160;23;665;-67
2022/11/28 03:49:42;;;;;;;;;;;;;;;13.47;76.92;100488.72;1261254;23;638;-67
2022/11/28 03:50:32;;;;;;;;;;;;;;;13.48;76.20;100481.53;1262125;23;626;-67
2022/11/28 03:51:23;;;;;;;;;;;;;;;13.50;76.37;100485.78;1261311;23;683;-67
2022/11/28 03:52:13;;;;;;;;;;;;;;;13.52;76.73;100491.88;1262236;23;618;-67
2022/11/28 03:53:04;;;;;;;;;;;;;;;13.49;76.04;100492.13;1256596;23;625;-67
2022/11/28 03:53:54;;;;;;;;;;;;;;;13.43;76.30;100492.66;1254812;23;1897;-67
2022/11/28 03:54:45;;;;;;;;;;;;;;;13.41;76.55;100483.91;1261073;23;665;-67
2022/11/28 03:55:35;;;;;;;;;;;;;;;13.41;76.54;100483.91;1261241;23;610;-68
2022/11/28 03:56:25;;;;;;;;;;;;;;;13.44;76.77;100491.63;1261293;23;650;-67
2022/11/28 03:57:16;;;;;;;;;;;;;;;13.46;76.64;100492.38;1261245;23;610;-67
2022/11/28 03:58:06;;;;;;;;;;;;;;;13.49;76.88;100496.63;1261281;23;626;-67
2022/11/28 03:58:57;;;;;;;;;;;;;;;13.47;76.93;100494.06;1256694;23;688;-67
2022/11/28 03:59:47;;;;;;;;;;;;;;;13.48;76.68;100493.09;1254877;23;609;-67
2022/11/28 04:00:38;;;;;;;;;;;;;;;13.39;76.12;100488.53;1254815;23;637;-68
2022/11/28 04:01:28;;;;;;;;;;;;;;;13.37;77.27;100493.16;1248129;23;615;-68
2022/11/28 04:02:19;;;;;;;;;;;;;;;13.36;76.78;100498.63;1253402;23;708;-68
2022/11/28 04:03:09;;;;;;;;;;;;;;;13.36;77.32;100502.16;1262048;23;696;-68
2022/11/28 04:04:00;;;;;;;;;;;;;;;13.40;76.51;100495.56;1261997;23;630;-67
2022/11/28 04:04:50;;;;;;;;;;;;;;;13.43;77.23;100500.69;1262051;23;669;-68
2022/11/28 04:05:40;;;;;;;;;;;;;;;13.44;76.57;100501.50;1261233;23;602;-68
2022/11/28 04:06:31;;;;;;;;;;;;;;;13.44;76.35;100499.66;1261192;23;689;-67
2022/11/28 04:07:21;;;;;;;;;;;;;;;13.41;76.47;100502.63;1261352;23;618;-67
2022/11/28 04:08:12;;;;;;;;;;;;;;;13.44;77.25;100501.50;1261226;23;717;-67
2022/11/28 04:09:02;;;;;;;;;;;;;;;13.45;77.29;100496.03;1261286;23;634;-68
2022/11/28 04:09:53;;;;;;;;;;;;;;;13.46;76.87;100508.44;1262208;23;712;-68
2022/11/28 04:10:43;;;;;;;;;;;;;;;13.44;76.41;100504.19;1262130;23;649;-67
2022/11/28 04:11:34;;;;;;;;;;;;;;;13.46;76.57;100495.06;1261115;23;590;-67
2022/11/28 04:12:24;;;;;;;;;;;;;;;13.46;77.36;100503.06;1261951;23;653;-68
2022/11/28 04:13:14;;;;;;;;;;;;;;;13.45;76.35;100506.72;1262049;23;759;-68
2022/11/28 04:14:05;;;;;;;;;;;;;;;13.44;76.96;100505.03;1261922;23;1889;-67
2022/11/28 04:14:55;;;;;;;;;;;;;;;13.44;76.61;100507.69;1261288;23;618;-67
2022/11/28 04:15:46;;;;;;;;;;;;;;;13.38;77.04;100502.03;1256543;23;707;-67
2022/11/28 04:16:36;;;;;;;;;;;;;;;13.41;77.09;100499.09;1254979;23;653;-68
2022/11/28 04:17:27;;;;;;;;;;;;;;;13.41;77.33;100505.31;1261094;23;630;-68
2022/11/28 04:18:17;;;;;;;;;;;;;;;13.42;77.29;100507.00;1261271;23;652;-67
2022/11/28 04:19:08;;;;;;;;;;;;;;;13.43;77.32;100502.50;1262080;23;656;-67
2022/11/28 04:19:58;;;;;;;;;;;;;;;13.45;76.35;100504.06;1256325;23;696;-67
2022/11/28 04:20:49;;;;;;;;;;;;;;;13.44;77.15;100505.03;1254972;23;645;-67
2022/11/28 04:21:39;;;;;;;;;;;;;;;13.45;77.34;100501.38;1261072;23;603;-67
2022/11/28 04:22:29;;;;;;;;;;;;;;;13.47;76.27;100499.44;1262210;23;657;-68
2022/11/28 04:23:20;;;;;;;;;;;;;;;13.46;76.50;100500.41;1262153;23;684;-67
2022/11/28 04:24:10;;;;;;;;;;;;;;;13.46;76.13;100502.22;1261244;23;617;-67
2022/11/28 04:25:01;;;;;;;;;;;;;;;13.45;76.54;100506.72;1256445;23;891;-67
2022/11/28 04:25:51;;;;;;;;;;;;;;;13.46;76.99;100508.44;1254352;23;614;-67